createdAt,value
2023-04-02T00:04:04.913Z,0.0000
2023-04-02T00:04:50.022Z,0.0000
2023-04-02T00:05:52.067Z,0.0000
2023-04-02T00:06:54.563Z,0.0000
2023-04-02T00:07:56.866Z,0.0000
2023-04-02T00:08:58.939Z,0.0000
2023-04-02T00:10:00.993Z,0.0000
2023-04-02T00:13:05.084Z,0.0000
2023-04-02T00:14:07.380Z,0.0000
2023-04-02T00:18:34.586Z,0.0000
2023-04-02T00:19:19.637Z,0.0000
2023-04-02T00:20:24.444Z,0.0000
2023-04-02T00:21:23.133Z,0.0000
2023-04-02T00:22:25.510Z,0.0000
2023-04-02T00:23:27.507Z,0.0000
2023-04-02T00:24:29.583Z,0.0000
2023-04-02T00:27:07.914Z,0.0000
2023-04-02T00:27:53.144Z,0.0000
2023-04-02T00:28:55.135Z,0.0000
2023-04-02T00:29:57.519Z,0.0000
2023-04-02T00:30:59.754Z,0.0000
2023-04-02T00:32:01.830Z,0.0000
2023-04-02T00:33:04.292Z,0.0000
2023-04-02T00:38:46.800Z,0.0000
2023-04-02T00:39:36.740Z,0.0000
2023-04-02T00:40:39.011Z,0.0000
2023-04-02T00:41:41.067Z,0.0000
2023-04-02T00:42:43.129Z,0.0000
2023-04-02T00:43:45.190Z,0.0000
2023-04-02T00:44:47.245Z,0.0000
2023-04-02T00:45:49.482Z,0.0000
2023-04-02T00:48:25.531Z,0.0000
2023-04-02T00:49:27.705Z,0.0000
2023-04-02T00:50:30.124Z,0.0000
2023-04-02T00:51:32.148Z,0.0000
2023-04-02T00:52:34.427Z,0.0000
2023-04-02T00:53:36.743Z,0.0000
2023-04-02T00:54:38.914Z,0.0000
2023-04-02T00:55:40.982Z,0.0000
2023-04-02T00:56:43.422Z,0.0000
2023-04-02T00:57:45.429Z,0.0000
2023-04-02T00:58:47.487Z,0.0000
2023-04-02T00:59:49.934Z,0.0000
2023-04-02T01:00:51.964Z,0.0000
2023-04-02T01:01:54.029Z,0.0000
2023-04-02T01:02:56.338Z,0.0000
2023-04-02T01:03:58.468Z,0.0000
2023-04-02T01:05:00.928Z,0.0000
2023-04-02T01:06:03.193Z,0.0000
2023-04-02T01:07:05.244Z,0.0000
2023-04-02T01:08:07.281Z,0.0000
2023-04-02T01:09:09.295Z,0.0000
2023-04-02T01:10:11.324Z,0.0000
2023-04-02T01:11:13.427Z,0.0000
2023-04-02T01:12:15.654Z,0.0000
2023-04-02T01:13:17.696Z,0.0000
2023-04-02T01:14:19.726Z,0.0000
2023-04-02T01:15:21.758Z,0.0000
2023-04-02T01:16:23.872Z,0.0000
2023-04-02T01:17:26.149Z,0.0000
2023-04-02T01:18:28.284Z,0.0000
2023-04-02T01:19:30.254Z,0.0000
2023-04-02T01:20:32.274Z,0.0000
2023-04-02T01:21:34.331Z,0.0000
2023-04-02T01:22:36.681Z,0.0000
2023-04-02T01:23:38.705Z,0.0000
2023-04-02T01:24:40.821Z,0.0000
2023-04-02T01:25:42.838Z,0.0000
2023-04-02T01:26:44.889Z,0.0000
2023-04-02T01:27:46.918Z,0.0000
2023-04-02T01:28:48.936Z,0.0000
2023-04-02T01:29:51.053Z,0.0000
2023-04-02T01:30:53.081Z,0.0000
2023-04-02T01:31:55.221Z,0.0000
2023-04-02T01:32:57.274Z,0.0000
2023-04-02T01:33:59.287Z,0.0000
2023-04-02T01:36:29.799Z,0.0000
2023-04-02T01:37:32.027Z,0.0000
2023-04-02T01:38:34.100Z,0.0000
2023-04-02T01:39:36.094Z,0.0000
2023-04-02T01:40:38.434Z,0.0000
2023-04-02T01:41:40.482Z,0.0000
2023-04-02T01:42:42.552Z,0.0000
2023-04-02T01:43:44.599Z,0.0000
2023-04-02T01:44:46.684Z,0.0000
2023-04-02T01:45:49.006Z,0.0000
2023-04-02T01:46:51.155Z,0.0000
2023-04-02T01:47:53.372Z,0.0000
2023-04-02T01:48:55.460Z,0.0000
2023-04-02T01:49:57.523Z,0.0000
2023-04-02T01:50:59.738Z,0.0000
2023-04-02T01:52:01.756Z,0.0000
2023-04-02T01:53:04.097Z,0.0000
2023-04-02T01:54:06.155Z,0.0000
2023-04-02T01:55:08.194Z,0.0000
2023-04-02T01:56:10.232Z,0.0000
2023-04-02T01:57:12.500Z,0.0000
2023-04-02T01:58:14.609Z,0.0000
2023-04-02T01:59:16.682Z,0.0000
2023-04-02T02:00:18.926Z,0.0000
2023-04-02T02:01:21.060Z,0.0000
2023-04-02T02:02:23.242Z,0.0000
2023-04-02T02:03:25.320Z,0.0000
2023-04-02T02:04:27.627Z,0.0000
2023-04-02T02:05:29.860Z,0.0000
2023-04-02T02:06:31.911Z,0.0000
2023-04-02T02:07:33.939Z,0.0000
2023-04-02T02:08:36.032Z,0.0000
2023-04-02T02:09:38.071Z,0.0000
2023-04-02T02:10:40.283Z,0.0000
2023-04-02T02:11:42.321Z,0.0000
2023-04-02T02:12:44.348Z,0.0000
2023-04-02T02:13:46.427Z,0.0000
2023-04-02T02:14:48.484Z,0.0000
2023-04-02T02:15:50.537Z,0.0000
2023-04-02T02:16:52.609Z,0.0000
2023-04-02T02:17:54.734Z,0.0000
2023-04-02T02:18:56.798Z,0.0000
2023-04-02T02:19:58.906Z,0.0000
2023-04-02T02:21:00.930Z,0.0000
2023-04-02T02:22:02.986Z,0.0000
2023-04-02T02:23:05.040Z,0.0000
2023-04-02T02:24:07.249Z,0.0000
2023-04-02T02:25:09.300Z,0.0000
2023-04-02T02:26:11.389Z,0.0000
2023-04-02T02:27:13.421Z,0.0000
2023-04-02T02:28:15.493Z,0.0000
2023-04-02T02:29:17.592Z,0.0000
2023-04-02T02:30:19.665Z,0.0000
2023-04-02T02:31:21.718Z,0.0000
2023-04-02T02:32:23.802Z,0.0000
2023-04-02T02:33:25.914Z,0.0000
2023-04-02T02:34:27.993Z,0.0000
2023-04-02T02:35:30.051Z,0.0000
2023-04-02T02:36:32.103Z,0.0000
2023-04-02T02:37:34.170Z,0.0000
2023-04-02T02:38:36.244Z,0.0000
2023-04-02T02:39:38.281Z,0.0000
2023-04-02T02:40:40.339Z,0.0000
2023-04-02T02:41:42.416Z,0.0000
2023-04-02T02:42:44.478Z,0.0000
2023-04-02T02:43:46.522Z,0.0000
2023-04-02T02:44:49.326Z,0.0000
2023-04-02T02:45:51.410Z,0.0000
2023-04-02T02:46:53.465Z,0.0000
2023-04-02T02:47:55.743Z,0.0000
2023-04-02T02:48:57.791Z,0.0000
2023-04-02T02:49:59.843Z,0.0000
2023-04-02T02:51:01.867Z,0.0000
2023-04-02T02:52:03.906Z,0.0000
2023-04-02T02:53:06.160Z,0.0000
2023-04-02T02:54:08.275Z,0.0000
2023-04-02T02:55:10.385Z,0.0000
2023-04-02T02:56:12.400Z,0.0000
2023-04-02T02:57:14.462Z,0.0000
2023-04-02T02:58:16.516Z,0.0000
2023-04-02T02:59:18.581Z,0.0000
2023-04-02T03:00:20.596Z,0.0000
2023-04-02T03:01:22.714Z,0.0000
2023-04-02T03:02:24.880Z,0.0000
2023-04-02T03:03:27.079Z,0.0000
2023-04-02T03:04:29.217Z,0.0000
2023-04-02T03:05:31.327Z,0.0000
2023-04-02T03:06:33.358Z,0.0000
2023-04-02T03:07:35.424Z,0.0000
2023-04-02T03:08:37.451Z,0.0000
2023-04-02T03:09:39.477Z,0.0000
2023-04-02T03:10:41.575Z,0.0000
2023-04-02T03:11:43.576Z,0.0000
2023-04-02T03:12:45.607Z,0.0000
2023-04-02T03:13:47.653Z,0.0000
2023-04-02T03:14:49.679Z,0.0000
2023-04-02T03:15:51.754Z,0.0000
2023-04-02T03:16:53.793Z,0.0000
2023-04-02T03:17:56.117Z,0.0000
2023-04-02T03:18:58.103Z,0.0000
2023-04-02T03:20:00.189Z,0.0000
2023-04-02T03:21:02.254Z,0.0000
2023-04-02T03:22:04.274Z,0.0000
2023-04-02T03:23:06.317Z,0.0000
2023-04-02T03:24:08.366Z,0.0000
2023-04-02T03:25:10.430Z,0.0000
2023-04-02T03:26:12.544Z,0.0000
2023-04-02T03:27:15.289Z,0.0000
2023-04-02T03:28:17.350Z,0.0000
2023-04-02T03:29:19.401Z,0.0000
2023-04-02T03:30:21.673Z,0.0000
2023-04-02T03:31:23.834Z,0.0000
2023-04-02T03:32:25.899Z,0.0000
2023-04-02T03:33:27.937Z,0.0000
2023-04-02T03:34:29.961Z,0.0000
2023-04-02T03:35:32.191Z,0.0000
2023-04-02T03:36:34.269Z,0.0000
2023-04-02T03:37:36.515Z,0.0000
2023-04-02T03:38:38.584Z,0.0000
2023-04-02T03:39:40.633Z,0.0000
2023-04-02T03:40:42.685Z,0.0000
2023-04-02T03:41:44.750Z,0.0000
2023-04-02T03:42:46.799Z,0.0000
2023-04-02T03:43:48.859Z,0.0000
2023-04-02T03:44:51.226Z,0.0000
2023-04-02T03:45:53.288Z,0.0000
2023-04-02T03:46:55.413Z,0.0000
2023-04-02T03:47:57.505Z,0.0000
2023-04-02T03:48:59.535Z,0.0000
2023-04-02T03:50:01.609Z,0.0000
2023-04-02T03:51:03.658Z,0.0000
2023-04-02T03:52:05.723Z,0.0000
2023-04-02T03:53:07.928Z,0.0000
2023-04-02T03:54:09.983Z,0.0000
2023-04-02T03:55:12.021Z,0.0000
2023-04-02T03:56:14.100Z,0.0000
2023-04-02T03:57:16.232Z,0.0000
2023-04-02T03:58:18.335Z,0.0000
2023-04-02T03:59:20.292Z,0.0000
2023-04-02T04:00:22.343Z,0.0000
2023-04-02T04:01:24.349Z,0.0000
2023-04-02T04:02:26.584Z,0.0000
2023-04-02T04:03:28.683Z,0.0000
2023-04-02T04:04:30.786Z,0.0000
2023-04-02T04:05:33.101Z,0.0000
2023-04-02T04:06:35.273Z,0.0000
2023-04-02T04:07:37.496Z,0.0000
2023-04-02T04:08:39.517Z,0.0000
2023-04-02T04:09:41.556Z,0.0000
2023-04-02T04:10:43.637Z,0.0000
2023-04-02T04:11:45.707Z,0.0000
2023-04-02T04:12:47.766Z,0.0000
2023-04-02T04:13:49.799Z,0.0000
2023-04-02T04:14:51.871Z,0.0000
2023-04-02T04:15:53.895Z,0.0000
2023-04-02T04:16:55.979Z,0.0000
2023-04-02T04:17:58.070Z,0.0000
2023-04-02T04:19:00.065Z,0.0000
2023-04-02T04:20:02.135Z,0.0000
2023-04-02T04:21:04.144Z,0.0000
2023-04-02T04:22:06.180Z,0.0000
2023-04-02T04:23:08.269Z,0.0000
2023-04-02T04:24:10.318Z,0.0000
2023-04-02T04:25:12.644Z,0.0000
2023-04-02T04:26:14.687Z,0.0000
2023-04-02T04:27:16.709Z,0.0000
2023-04-02T04:28:18.771Z,0.0000
2023-04-02T04:29:20.819Z,0.0000
2023-04-02T04:30:22.838Z,0.0000
2023-04-02T04:31:25.992Z,0.0000
2023-04-02T04:32:28.183Z,0.0000
2023-04-02T04:33:30.235Z,0.0000
2023-04-02T04:34:32.303Z,0.0000
2023-04-02T04:35:34.616Z,0.0000
2023-04-02T04:36:36.919Z,0.0000
2023-04-02T04:37:39.334Z,0.0000
2023-04-02T04:38:42.164Z,0.0000
2023-04-02T04:39:44.430Z,0.0000
2023-04-02T04:40:46.465Z,0.0000
2023-04-02T04:41:48.486Z,0.0000
2023-04-02T04:42:50.514Z,0.0000
2023-04-02T04:43:52.602Z,0.0000
2023-04-02T04:44:54.846Z,0.0000
2023-04-02T04:45:56.920Z,0.0000
2023-04-02T04:46:58.987Z,0.0000
2023-04-02T04:48:01.080Z,0.0000
2023-04-02T04:49:03.164Z,0.0000
2023-04-02T04:50:05.247Z,0.0000
2023-04-02T04:51:07.309Z,0.0000
2023-04-02T04:52:09.410Z,0.0000
2023-04-02T04:53:11.487Z,0.0000
2023-04-02T04:54:13.578Z,0.0000
2023-04-02T04:55:15.940Z,0.0000
2023-04-02T04:56:19.609Z,0.0000
2023-04-02T04:57:18.654Z,5.6250
2023-04-02T04:58:20.778Z,5.6250
2023-04-02T04:59:23.162Z,5.6250
2023-04-02T05:00:25.183Z,5.6250
2023-04-02T05:01:27.388Z,6.5625
2023-04-02T05:02:29.518Z,11.2500
2023-04-02T05:03:31.547Z,11.2500
2023-04-02T05:04:33.915Z,12.8125
2023-04-02T05:05:36.208Z,16.8750
2023-04-02T05:06:38.485Z,16.8750
2023-04-02T05:07:40.609Z,20.6250
2023-04-02T05:08:42.706Z,22.5000
2023-04-02T05:09:44.826Z,23.1250
2023-04-02T05:10:46.904Z,28.1250
2023-04-02T05:11:49.005Z,28.1250
2023-04-02T05:12:51.311Z,30.3125
2023-04-02T05:13:53.405Z,33.7500
2023-04-02T05:14:55.755Z,33.7500
2023-04-02T05:15:59.444Z,37.5000
2023-04-02T05:16:59.579Z,39.3750
2023-04-02T05:18:01.691Z,41.2500
2023-04-02T05:19:03.817Z,45.0000
2023-04-02T05:20:05.936Z,47.1875
2023-04-02T05:21:07.979Z,50.6250
2023-04-02T05:22:10.081Z,50.6250
2023-04-02T05:23:12.214Z,52.8125
2023-04-02T05:24:14.293Z,56.2500
2023-04-02T05:25:16.420Z,60.3125
2023-04-02T05:26:18.520Z,61.8750
2023-04-02T05:27:20.615Z,65.6250
2023-04-02T05:28:22.725Z,67.5000
2023-04-02T05:29:24.834Z,73.1250
2023-04-02T05:30:26.994Z,75.9375
2023-04-02T05:31:29.142Z,78.7500
2023-04-02T05:32:31.258Z,84.3750
2023-04-02T05:33:33.348Z,89.3750
2023-04-02T05:34:35.462Z,96.5625
2023-04-02T05:35:37.961Z,104.0625
2023-04-02T05:36:40.235Z,110.9375
2023-04-02T05:37:42.345Z,119.6875
2023-04-02T05:38:44.452Z,127.1875
2023-04-02T05:39:46.612Z,129.3750
2023-04-02T05:40:48.663Z,132.1875
2023-04-02T05:41:50.735Z,135.0000
2023-04-02T05:42:52.865Z,140.6250
2023-04-02T05:43:54.914Z,144.6875
2023-04-02T05:44:57.004Z,152.8125
2023-04-02T05:45:59.081Z,170.0000
2023-04-02T05:47:01.255Z,186.8750
2023-04-02T05:48:03.366Z,202.5000
2023-04-02T05:49:05.393Z,210.9375
2023-04-02T05:50:07.493Z,213.7500
2023-04-02T05:51:09.650Z,215.3125
2023-04-02T05:52:11.763Z,224.0625
2023-04-02T05:53:13.836Z,238.7500
2023-04-02T05:54:15.893Z,261.8750
2023-04-02T05:55:17.963Z,282.5000
2023-04-02T05:56:20.093Z,292.5000
2023-04-02T05:57:29.579Z,292.5000
2023-04-02T05:58:35.450Z,283.0078
2023-04-02T05:59:24.443Z,274.2188
2023-04-02T06:00:26.511Z,276.8750
2023-04-02T06:01:28.620Z,295.9375
2023-04-02T06:02:31.283Z,326.8750
2023-04-02T06:03:33.501Z,343.4375
2023-04-02T06:04:35.616Z,352.8125
2023-04-02T06:05:37.835Z,351.8750
2023-04-02T06:06:39.986Z,337.5000
2023-04-02T06:07:42.082Z,325.9375
2023-04-02T06:08:44.179Z,327.1875
2023-04-02T06:09:46.249Z,335.0000
2023-04-02T06:10:48.358Z,338.1250
2023-04-02T06:11:50.533Z,338.4375
2023-04-02T06:12:52.574Z,344.3750
2023-04-02T06:13:54.658Z,351.2500
2023-04-02T06:14:56.995Z,360.3125
2023-04-02T06:15:59.090Z,373.7500
2023-04-02T06:17:01.309Z,391.2500
2023-04-02T06:18:03.485Z,403.1250
2023-04-02T06:19:05.618Z,415.3125
2023-04-02T06:20:07.722Z,434.3750
2023-04-02T06:21:09.814Z,447.8125
2023-04-02T06:22:11.987Z,462.5000
2023-04-02T06:23:14.140Z,467.5000
2023-04-02T06:24:16.241Z,470.6250
2023-04-02T06:25:18.352Z,477.5000
2023-04-02T06:26:20.445Z,483.4375
2023-04-02T06:27:22.573Z,489.6875
2023-04-02T06:28:24.660Z,490.0000
2023-04-02T06:29:26.770Z,491.8750
2023-04-02T06:30:28.900Z,495.6250
2023-04-02T06:31:30.942Z,500.6250
2023-04-02T06:32:33.227Z,502.5000
2023-04-02T06:33:35.357Z,506.2500
2023-04-02T06:34:37.461Z,515.9375
2023-04-02T06:35:39.582Z,536.5625
2023-04-02T06:36:41.672Z,568.1250
2023-04-02T06:37:43.824Z,598.1250
2023-04-02T06:38:45.933Z,630.3125
2023-04-02T06:39:48.040Z,669.0625
2023-04-02T06:40:50.150Z,690.3125
2023-04-02T06:41:52.253Z,705.9375
2023-04-02T06:42:54.363Z,716.5625
2023-04-02T06:43:56.484Z,719.3750
2023-04-02T06:44:58.569Z,726.5625
2023-04-02T06:46:00.693Z,730.0000
2023-04-02T06:47:03.237Z,736.5625
2023-04-02T06:48:05.396Z,748.7500
2023-04-02T06:49:07.502Z,768.1250
2023-04-02T06:50:09.601Z,764.3750
2023-04-02T06:51:11.692Z,761.5625
2023-04-02T06:52:13.778Z,752.1875
2023-04-02T06:53:15.937Z,754.3750
2023-04-02T06:54:18.032Z,768.4375
2023-04-02T06:55:20.163Z,800.9375
2023-04-02T06:56:22.253Z,834.0625
2023-04-02T06:57:24.417Z,893.1250
2023-04-02T06:58:26.530Z,928.7500
2023-04-02T06:59:28.657Z,931.5625
2023-04-02T07:00:30.747Z,956.5625
2023-04-02T07:01:32.871Z,994.6875
2023-04-02T07:02:35.044Z,1006.5625
2023-04-02T07:03:37.203Z,1020.9375
2023-04-02T07:04:39.351Z,1031.5625
2023-04-02T07:05:42.964Z,1030.6250
2023-04-02T07:06:41.726Z,1024.0809
2023-04-02T07:07:43.806Z,1014.0625
2023-04-02T07:08:45.942Z,996.8750
2023-04-02T07:09:48.049Z,989.3750
2023-04-02T07:10:50.108Z,979.0625
2023-04-02T07:11:52.200Z,971.8750
2023-04-02T07:12:54.287Z,960.9375
2023-04-02T07:13:56.368Z,948.4375
2023-04-02T07:14:58.450Z,932.5000
2023-04-02T07:16:00.598Z,943.7500
2023-04-02T07:17:02.929Z,962.8125
2023-04-02T07:18:05.018Z,978.4375
2023-04-02T07:19:07.265Z,1012.5000
2023-04-02T07:20:09.342Z,1048.7500
2023-04-02T07:21:11.397Z,1058.1250
2023-04-02T07:22:13.493Z,1072.5000
2023-04-02T07:23:17.037Z,1083.1250
2023-04-02T07:24:15.790Z,1081.6544
2023-04-02T07:25:17.908Z,1103.7500
2023-04-02T07:26:20.265Z,1171.8750
2023-04-02T07:27:22.357Z,1349.0625
2023-04-02T07:28:24.506Z,1480.0000
2023-04-02T07:29:26.643Z,1293.4375
2023-04-02T07:30:28.763Z,1201.8750
2023-04-02T07:31:30.941Z,1111.5625
2023-04-02T07:32:33.071Z,1078.4375
2023-04-02T07:33:35.142Z,1051.8750
2023-04-02T07:34:35.379Z,1056.8383
2023-04-02T07:35:37.797Z,1096.2500
2023-04-02T07:36:40.050Z,1345.0000
2023-04-02T07:37:42.156Z,1379.0625
2023-04-02T07:38:44.235Z,1519.0625
2023-04-02T07:39:46.389Z,1594.6875
2023-04-02T07:40:48.490Z,2133.7500
2023-04-02T07:41:50.613Z,1976.2500
2023-04-02T07:42:52.748Z,1271.5625
2023-04-02T07:43:54.825Z,1207.1875
2023-04-02T07:44:56.979Z,1296.5625
2023-04-02T07:45:59.086Z,1416.2500
2023-04-02T07:47:01.373Z,1421.2500
2023-04-02T07:48:03.681Z,1533.7500
2023-04-02T07:49:05.844Z,2130.9375
2023-04-02T07:50:07.962Z,2994.3750
2023-04-02T07:51:10.106Z,3350.6250
2023-04-02T07:52:12.230Z,3743.1250
2023-04-02T07:53:14.294Z,3572.1875
2023-04-02T07:54:16.397Z,3626.8750
2023-04-02T07:55:18.502Z,3839.3750
2023-04-02T07:56:20.625Z,3887.5000
2023-04-02T07:57:22.735Z,3831.8750
2023-04-02T07:58:24.812Z,3272.8125
2023-04-02T07:59:26.885Z,2210.3125
2023-04-02T08:00:30.514Z,2406.8750
2023-04-02T08:01:29.355Z,2982.5735
2023-04-02T08:02:31.528Z,1672.5000
2023-04-02T08:03:33.754Z,1590.0000
2023-04-02T08:04:35.874Z,1534.3750
2023-04-02T08:05:38.283Z,1479.6875
2023-04-02T08:06:40.348Z,1648.4375
2023-04-02T08:07:42.434Z,1470.3125
2023-04-02T08:08:44.545Z,1821.2500
2023-04-02T08:09:46.721Z,1519.6875
2023-04-02T08:10:48.871Z,1514.6875
2023-04-02T08:11:51.184Z,1689.6875
2023-04-02T08:12:53.264Z,1932.1875
2023-04-02T08:13:55.364Z,2473.7500
2023-04-02T08:14:57.443Z,2028.7500
2023-04-02T08:15:59.576Z,1968.7500
2023-04-02T08:17:01.700Z,1548.4375
2023-04-02T08:18:03.820Z,1380.0000
2023-04-02T08:19:05.865Z,1382.1875
2023-04-02T08:20:07.978Z,1442.5000
2023-04-02T08:21:10.157Z,1486.2500
2023-04-02T08:22:12.161Z,2168.7500
2023-04-02T08:23:14.239Z,1597.5000
2023-04-02T08:24:16.364Z,1634.0625
2023-04-02T08:25:18.504Z,2006.5625
2023-04-02T08:26:20.628Z,3357.5000
2023-04-02T08:27:22.690Z,3115.0000
2023-04-02T08:28:24.786Z,2512.8125
2023-04-02T08:29:26.858Z,2320.9375
2023-04-02T08:30:29.012Z,3494.3750
2023-04-02T08:31:31.101Z,3387.8125
2023-04-02T08:32:33.261Z,2509.3750
2023-04-02T08:33:35.366Z,3090.9375
2023-04-02T08:34:37.473Z,1717.5000
2023-04-02T08:35:39.776Z,1951.2500
2023-04-02T08:36:42.154Z,1663.1250
2023-04-02T08:37:44.246Z,1495.0000
2023-04-02T08:38:46.351Z,1620.0000
2023-04-02T08:39:48.453Z,1419.3750
2023-04-02T08:40:50.576Z,2015.0000
2023-04-02T08:41:52.690Z,2281.2500
2023-04-02T08:42:54.787Z,2212.1875
2023-04-02T08:43:56.887Z,1513.7500
2023-04-02T08:44:58.984Z,1936.8750
2023-04-02T08:46:01.344Z,1533.1250
2023-04-02T08:47:03.453Z,1672.1875
2023-04-02T08:48:05.601Z,2258.7500
2023-04-02T08:49:07.733Z,1335.3125
2023-04-02T08:50:09.824Z,1660.6250
2023-04-02T08:51:11.950Z,1459.0625
2023-04-02T08:52:14.075Z,1378.1250
2023-04-02T08:53:16.205Z,1369.0625
2023-04-02T08:54:18.317Z,1380.0000
2023-04-02T08:55:20.422Z,1462.8125
2023-04-02T08:56:22.558Z,1460.3125
2023-04-02T08:57:24.736Z,2096.5625
2023-04-02T08:58:27.026Z,2200.0000
2023-04-02T08:59:29.146Z,2311.5625
2023-04-02T09:00:31.296Z,3190.0000
2023-04-02T09:01:33.396Z,4139.6875
2023-04-02T09:02:35.584Z,2865.6250
2023-04-02T09:03:37.708Z,2217.1875
2023-04-02T09:04:39.901Z,1651.2500
2023-04-02T09:05:42.149Z,1659.3750
2023-04-02T09:06:44.213Z,2146.2500
2023-04-02T09:07:46.377Z,1635.3125
2023-04-02T09:08:46.791Z,1792.0588
2023-04-02T09:09:49.033Z,1471.2500
2023-04-02T09:10:51.153Z,1289.3750
2023-04-02T09:11:53.302Z,1278.7500
2023-04-02T09:12:55.430Z,1371.2500
2023-04-02T09:13:57.600Z,1559.6875
2023-04-02T09:14:59.725Z,1736.2500
2023-04-02T09:16:01.936Z,1960.6250
2023-04-02T09:17:04.080Z,2200.0000
2023-04-02T09:18:06.202Z,1950.6250
2023-04-02T09:19:08.300Z,1958.4375
2023-04-02T09:20:10.408Z,4348.4375
2023-04-02T09:21:12.530Z,3546.2500
2023-04-02T09:22:14.644Z,3693.7500
2023-04-02T09:23:16.775Z,3824.6875
2023-04-02T09:24:18.865Z,3264.6875
2023-04-02T09:25:20.983Z,4515.9375
2023-04-02T09:26:23.108Z,3592.1875
2023-04-02T09:27:25.196Z,3148.4375
2023-04-02T09:28:27.302Z,3517.5000
2023-04-02T09:29:29.410Z,3391.2500
2023-04-02T09:30:31.511Z,3672.5000
2023-04-02T09:31:33.887Z,3384.3750
2023-04-02T09:32:36.055Z,2852.5000
2023-04-02T09:33:38.196Z,2152.5000
2023-04-02T09:34:40.294Z,4060.3125
2023-04-02T09:35:42.542Z,4033.4375
2023-04-02T09:36:44.757Z,4581.2500
2023-04-02T09:37:46.872Z,1800.3125
2023-04-02T09:38:48.982Z,3381.5625
2023-04-02T09:39:51.127Z,3509.0625
2023-04-02T09:40:53.214Z,1908.1250
2023-04-02T09:42:04.962Z,1835.9375
2023-04-02T09:42:56.440Z,1406.2500
2023-04-02T09:43:58.613Z,1540.9375
2023-04-02T09:45:00.712Z,2462.5000
2023-04-02T09:46:02.808Z,3134.0625
2023-04-02T09:47:05.017Z,3377.5000
2023-04-02T09:48:07.259Z,3731.2500
2023-04-02T09:49:09.378Z,3501.2500
2023-04-02T09:50:11.510Z,2941.8750
2023-04-02T09:51:13.615Z,3012.1875
2023-04-02T09:52:15.725Z,2590.3125
2023-04-02T09:53:17.812Z,2313.4375
2023-04-02T09:54:19.929Z,2200.6250
2023-04-02T09:55:22.026Z,2141.8750
2023-04-02T09:56:24.340Z,2265.6250
2023-04-02T09:57:26.461Z,2007.5000
2023-04-02T09:58:28.545Z,2511.2500
2023-04-02T09:59:30.644Z,2563.7500
2023-04-02T10:00:32.952Z,2088.4375
2023-04-02T10:01:35.252Z,2010.3125
2023-04-02T10:02:37.655Z,2031.5625
2023-04-02T10:03:39.804Z,2113.7500
2023-04-02T10:04:41.968Z,2324.3750
2023-04-02T10:05:44.319Z,2519.6875
2023-04-02T10:06:46.487Z,2619.0625
2023-04-02T10:07:48.548Z,2509.0625
2023-04-02T10:08:50.654Z,2653.7500
2023-04-02T10:09:52.737Z,2790.6250
2023-04-02T10:10:55.132Z,2847.5000
2023-04-02T10:11:57.206Z,2698.4375
2023-04-02T10:12:59.290Z,2696.8750
2023-04-02T10:14:01.407Z,2778.7500
2023-04-02T10:15:03.596Z,3102.5000
2023-04-02T10:16:05.838Z,3444.3750
2023-04-02T10:17:08.022Z,3360.6250
2023-04-02T10:18:10.145Z,3147.1875
2023-04-02T10:19:12.250Z,3226.5625
2023-04-02T10:20:14.426Z,3332.1875
2023-04-02T10:21:14.867Z,3505.6985
2023-04-02T10:22:16.989Z,3199.6875
2023-04-02T10:23:19.353Z,2748.1250
2023-04-02T10:24:21.432Z,2236.2500
2023-04-02T10:25:23.563Z,2193.7500
2023-04-02T10:26:25.705Z,2242.5000
2023-04-02T10:27:27.801Z,3391.2500
2023-04-02T10:28:30.276Z,3207.5000
2023-04-02T10:29:32.410Z,3066.8750
2023-04-02T10:30:34.553Z,3232.5000
2023-04-02T10:31:36.716Z,2668.4375
2023-04-02T10:32:38.831Z,2162.5000
2023-04-02T10:33:41.034Z,1894.3750
2023-04-02T10:34:43.342Z,1732.5000
2023-04-02T10:35:45.543Z,1589.3750
2023-04-02T10:36:47.652Z,1494.3750
2023-04-02T10:37:49.772Z,1465.0000
2023-04-02T10:38:51.888Z,1476.8750
2023-04-02T10:39:54.015Z,1483.7500
2023-04-02T10:40:57.025Z,1470.6250
2023-04-02T10:41:59.186Z,1466.8750
2023-04-02T10:43:01.324Z,1514.0625
2023-04-02T10:44:16.654Z,2064.0625
2023-04-02T10:45:04.639Z,1675.8984
2023-04-02T10:46:06.807Z,1728.7500
2023-04-02T10:47:08.899Z,1872.1875
2023-04-02T10:48:11.084Z,1896.2500
2023-04-02T10:49:13.197Z,1864.6875
2023-04-02T10:50:15.245Z,1860.3125
2023-04-02T10:51:17.397Z,1878.7500
2023-04-02T10:52:19.468Z,2035.3125
2023-04-02T10:53:21.642Z,1889.3750
2023-04-02T10:54:23.721Z,1987.5000
2023-04-02T10:55:25.833Z,2465.9375
2023-04-02T10:56:29.809Z,2507.8125
2023-04-02T10:57:29.159Z,2114.2969
2023-04-02T10:58:31.226Z,2599.3750
2023-04-02T10:59:33.297Z,3672.8125
2023-04-02T11:00:35.457Z,2273.7500
2023-04-02T11:01:37.655Z,2073.1250
2023-04-02T11:02:39.874Z,2763.1250
2023-04-02T11:03:42.190Z,5046.2500
2023-04-02T11:04:44.370Z,4807.1875
2023-04-02T11:05:46.559Z,3603.4375
2023-04-02T11:06:48.699Z,1958.4375
2023-04-02T11:07:50.836Z,2114.6875
2023-04-02T11:08:52.962Z,4361.5625
2023-04-02T11:09:55.126Z,4777.8125
2023-04-02T11:10:57.294Z,4101.8750
2023-04-02T11:11:59.410Z,2653.1250
2023-04-02T11:13:01.754Z,2883.4375
2023-04-02T11:14:03.929Z,4101.8750
2023-04-02T11:15:06.026Z,5173.7500
2023-04-02T11:16:08.224Z,5396.2500
2023-04-02T11:17:10.356Z,5365.3125
2023-04-02T11:18:12.473Z,5378.4375
2023-04-02T11:19:14.624Z,5427.1875
2023-04-02T11:20:16.771Z,5462.5000
2023-04-02T11:21:18.913Z,3685.9375
2023-04-02T11:22:21.082Z,1533.1250
2023-04-02T11:23:23.219Z,1563.1250
2023-04-02T11:24:25.378Z,1572.8125
2023-04-02T11:25:27.774Z,1615.0000
2023-04-02T11:26:29.909Z,2198.4375
2023-04-02T11:27:32.063Z,5767.1875
2023-04-02T11:28:34.271Z,5876.2500
2023-04-02T11:29:36.422Z,5872.5000
2023-04-02T11:30:38.552Z,5603.4375
2023-04-02T11:31:40.777Z,4639.6875
2023-04-02T11:32:43.168Z,5704.3750
2023-04-02T11:33:47.364Z,4442.1875
2023-04-02T11:34:56.387Z,2456.4707
2023-04-02T11:35:48.734Z,5752.6172
2023-04-02T11:36:50.884Z,5672.8125
2023-04-02T11:37:53.063Z,5653.7500
2023-04-02T11:38:59.635Z,5645.0000
2023-04-02T11:39:56.398Z,5281.5234
2023-04-02T11:40:58.546Z,4258.1250
2023-04-02T11:42:00.714Z,4435.6250
2023-04-02T11:43:02.900Z,5255.9375
2023-04-02T11:44:05.018Z,5111.2500
2023-04-02T11:45:07.196Z,4999.6875
2023-04-02T11:46:09.341Z,4985.9375
2023-04-02T11:47:11.479Z,1843.1250
2023-04-02T11:48:13.651Z,1889.0625
2023-04-02T11:49:15.979Z,2256.5625
2023-04-02T11:50:18.228Z,2178.4375
2023-04-02T11:51:21.329Z,3799.6875
2023-04-02T11:52:23.810Z,2609.3750
2023-04-02T11:53:25.951Z,4489.6875
2023-04-02T11:54:28.083Z,5892.5000
2023-04-02T11:55:30.212Z,4644.3750
2023-04-02T11:56:32.324Z,1544.3750
2023-04-02T11:57:34.577Z,1458.7500
2023-04-02T11:58:36.772Z,1491.8750
2023-04-02T11:59:38.915Z,1804.3750
2023-04-02T12:00:41.326Z,4259.3750
2023-04-02T12:01:43.455Z,5055.6250
2023-04-02T12:02:45.716Z,4484.3750
2023-04-02T12:03:47.874Z,2040.9375
2023-04-02T12:04:49.996Z,1552.8125
2023-04-02T12:05:52.117Z,1564.3750
2023-04-02T12:06:54.266Z,1546.5625
2023-04-02T12:07:56.438Z,1568.7500
2023-04-02T12:08:58.580Z,1603.7500
2023-04-02T12:10:00.724Z,1683.4375
2023-04-02T12:11:02.876Z,1857.5000
2023-04-02T12:12:04.991Z,1600.6250
2023-04-02T12:13:07.151Z,1510.3125
2023-04-02T12:14:09.313Z,1441.5625
2023-04-02T12:15:11.540Z,1396.5625
2023-04-02T12:16:13.694Z,1364.0625
2023-04-02T12:17:15.884Z,1351.2500
2023-04-02T12:18:18.018Z,1345.3125
2023-04-02T12:19:20.195Z,1323.1250
2023-04-02T12:20:22.335Z,1309.3750
2023-04-02T12:21:24.465Z,1275.0000
2023-04-02T12:22:26.856Z,1258.7500
2023-04-02T12:23:28.977Z,1261.5625
2023-04-02T12:24:31.141Z,1266.2500
2023-04-02T12:25:33.310Z,1292.8125
2023-04-02T12:26:35.442Z,1305.6250
2023-04-02T12:27:37.651Z,1299.6875
2023-04-02T12:28:39.791Z,1286.8750
2023-04-02T12:29:41.915Z,1283.1250
2023-04-02T12:30:44.201Z,1282.8125
2023-04-02T12:31:46.321Z,1263.7500
2023-04-02T12:32:48.448Z,1229.0625
2023-04-02T12:33:50.543Z,1201.2500
2023-04-02T12:34:52.709Z,1204.6875